sensor_id;sensor_type;location;lat;lon;timestamp;P1;durP1;ratioP1;P2;durP2;ratioP2
75898;SDS011;64576;50.460;4.866;2022-12-07T00:00:25;86.05;;;34.83;;
75898;SDS011;64576;50.460;4.866;2022-12-07T00:02:50;81.82;;;33.92;;
75898;SDS011;64576;50.460;4.866;2022-12-07T00:05:15;86.53;;;35.13;;
75898;SDS011;64576;50.460;4.866;2022-12-07T00:07:41;85.20;;;37.10;;
75898;SDS011;64576;50.460;4.866;2022-12-07T00:10:06;88.43;;;34.42;;
75898;SDS011;64576;50.460;4.866;2022-12-07T00:12:31;88.15;;;35.30;;
75898;SDS011;64576;50.460;4.866;2022-12-07T00:14:57;82.20;;;33.70;;
75898;SDS011;64576;50.460;4.866;2022-12-07T00:17:22;91.72;;;33.72;;
75898;SDS011;64576;50.460;4.866;2022-12-07T00:19:47;92.20;;;35.00;;
75898;SDS011;64576;50.460;4.866;2022-12-07T00:22:13;94.38;;;38.28;;
75898;SDS011;64576;50.460;4.866;2022-12-07T00:24:38;101.88;;;40.22;;
75898;SDS011;64576;50.460;4.866;2022-12-07T00:27:03;84.13;;;33.45;;
75898;SDS011;64576;50.460;4.866;2022-12-07T00:29:28;93.95;;;38.47;;
75898;SDS011;64576;50.460;4.866;2022-12-07T00:31:54;73.38;;;33.28;;
75898;SDS011;64576;50.460;4.866;2022-12-07T00:34:20;89.90;;;36.95;;
75898;SDS011;64576;50.460;4.866;2022-12-07T00:36:45;95.65;;;35.45;;
75898;SDS011;64576;50.460;4.866;2022-12-07T00:39:11;90.97;;;37.58;;
75898;SDS011;64576;50.460;4.866;2022-12-07T00:41:37;78.43;;;34.78;;
75898;SDS011;64576;50.460;4.866;2022-12-07T00:44:02;104.03;;;38.60;;
75898;SDS011;64576;50.460;4.866;2022-12-07T00:46:27;91.18;;;36.45;;
75898;SDS011;64576;50.460;4.866;2022-12-07T00:48:53;105.70;;;39.58;;
75898;SDS011;64576;50.460;4.866;2022-12-07T00:51:19;83.50;;;35.17;;
75898;SDS011;64576;50.460;4.866;2022-12-07T00:53:46;89.55;;;38.83;;
75898;SDS011;64576;50.460;4.866;2022-12-07T00:56:12;97.55;;;39.10;;
75898;SDS011;64576;50.460;4.866;2022-12-07T00:58:42;87.35;;;37.42;;
75898;SDS011;64576;50.460;4.866;2022-12-07T01:01:08;102.43;;;43.08;;
75898;SDS011;64576;50.460;4.866;2022-12-07T01:03:34;88.45;;;36.92;;
75898;SDS011;64576;50.460;4.866;2022-12-07T01:06:00;102.90;;;40.80;;
75898;SDS011;64576;50.460;4.866;2022-12-07T01:08:26;101.57;;;41.25;;
75898;SDS011;64576;50.460;4.866;2022-12-07T01:11:00;89.60;;;39.75;;
75898;SDS011;64576;50.460;4.866;2022-12-07T01:13:27;104.10;;;39.45;;
75898;SDS011;64576;50.460;4.866;2022-12-07T01:15:55;85.00;;;35.92;;
75898;SDS011;64576;50.460;4.866;2022-12-07T01:18:23;76.75;;;33.25;;
75898;SDS011;64576;50.460;4.866;2022-12-07T01:20:56;107.80;;;42.85;;
75898;SDS011;64576;50.460;4.866;2022-12-07T01:23:28;119.18;;;45.70;;
75898;SDS011;64576;50.460;4.866;2022-12-07T01:25:57;98.40;;;43.03;;
75898;SDS011;64576;50.460;4.866;2022-12-07T01:28:24;106.57;;;42.03;;
75898;SDS011;64576;50.460;4.866;2022-12-07T01:31:00;98.28;;;39.63;;
75898;SDS011;64576;50.460;4.866;2022-12-07T01:33:29;108.05;;;43.05;;
75898;SDS011;64576;50.460;4.866;2022-12-07T01:36:07;113.05;;;41.25;;
75898;SDS011;64576;50.460;4.866;2022-12-07T01:38:37;110.50;;;41.08;;
75898;SDS011;64576;50.460;4.866;2022-12-07T01:41:03;99.57;;;39.17;;
75898;SDS011;64576;50.460;4.866;2022-12-07T01:43:29;96.10;;;35.47;;
75898;SDS011;64576;50.460;4.866;2022-12-07T01:45:56;87.22;;;36.40;;
75898;SDS011;64576;50.460;4.866;2022-12-07T01:48:29;97.50;;;41.78;;
75898;SDS011;64576;50.460;4.866;2022-12-07T01:51:09;127.70;;;51.65;;
75898;SDS011;64576;50.460;4.866;2022-12-07T01:53:37;106.47;;;40.90;;
75898;SDS011;64576;50.460;4.866;2022-12-07T01:56:04;99.07;;;43.75;;
75898;SDS011;64576;50.460;4.866;2022-12-07T01:58:32;107.35;;;41.15;;
75898;SDS011;64576;50.460;4.866;2022-12-07T02:00:57;111.85;;;44.85;;
75898;SDS011;64576;50.460;4.866;2022-12-07T02:03:27;93.03;;;39.30;;
75898;SDS011;64576;50.460;4.866;2022-12-07T02:05:59;111.00;;;41.67;;
75898;SDS011;64576;50.460;4.866;2022-12-07T02:08:25;106.43;;;41.05;;
75898;SDS011;64576;50.460;4.866;2022-12-07T02:10:50;101.95;;;38.55;;
75898;SDS011;64576;50.460;4.866;2022-12-07T02:13:16;80.05;;;39.05;;
75898;SDS011;64576;50.460;4.866;2022-12-07T02:15:52;102.70;;;37.83;;
75898;SDS011;64576;50.460;4.866;2022-12-07T02:21:30;97.68;;;38.53;;
75898;SDS011;64576;50.460;4.866;2022-12-07T02:29:26;110.80;;;43.90;;
75898;SDS011;64576;50.460;4.866;2022-12-07T02:37:10;82.82;;;35.47;;
75898;SDS011;64576;50.460;4.866;2022-12-07T02:39:47;98.05;;;40.63;;
75898;SDS011;64576;50.460;4.866;2022-12-07T02:42:19;103.40;;;40.63;;
75898;SDS011;64576;50.460;4.866;2022-12-07T02:44:50;105.60;;;40.80;;
75898;SDS011;64576;50.460;4.866;2022-12-07T02:47:17;109.80;;;43.33;;
75898;SDS011;64576;50.460;4.866;2022-12-07T02:49:44;107.90;;;42.95;;
75898;SDS011;64576;50.460;4.866;2022-12-07T02:52:10;91.88;;;36.53;;
75898;SDS011;64576;50.460;4.866;2022-12-07T02:54:36;101.82;;;40.90;;
75898;SDS011;64576;50.460;4.866;2022-12-07T03:04:57;89.63;;;34.65;;
75898;SDS011;64576;50.460;4.866;2022-12-07T03:15:31;103.55;;;40.28;;
75898;SDS011;64576;50.460;4.866;2022-12-07T03:18:04;99.20;;;39.83;;
75898;SDS011;64576;50.460;4.866;2022-12-07T03:20:32;105.13;;;39.78;;
75898;SDS011;64576;50.460;4.866;2022-12-07T03:23:00;100.35;;;36.47;;
75898;SDS011;64576;50.460;4.866;2022-12-07T03:25:29;98.32;;;40.08;;
75898;SDS011;64576;50.460;4.866;2022-12-07T03:27:56;92.45;;;36.60;;
75898;SDS011;64576;50.460;4.866;2022-12-07T03:30:29;107.72;;;38.90;;
75898;SDS011;64576;50.460;4.866;2022-12-07T03:33:04;108.57;;;36.03;;
75898;SDS011;64576;50.460;4.866;2022-12-07T03:35:47;86.97;;;35.15;;
75898;SDS011;64576;50.460;4.866;2022-12-07T03:41:26;92.57;;;32.40;;
75898;SDS011;64576;50.460;4.866;2022-12-07T03:43:54;97.22;;;36.38;;
75898;SDS011;64576;50.460;4.866;2022-12-07T03:49:22;97.63;;;37.25;;
75898;SDS011;64576;50.460;4.866;2022-12-07T03:52:11;88.72;;;35.13;;
75898;SDS011;64576;50.460;4.866;2022-12-07T03:57:33;100.78;;;38.22;;
75898;SDS011;64576;50.460;4.866;2022-12-07T04:00:00;88.40;;;33.40;;
75898;SDS011;64576;50.460;4.866;2022-12-07T04:02:28;98.85;;;37.17;;
75898;SDS011;64576;50.460;4.866;2022-12-07T04:04:54;92.38;;;35.55;;
75898;SDS011;64576;50.460;4.866;2022-12-07T04:07:20;83.55;;;35.28;;
75898;SDS011;64576;50.460;4.866;2022-12-07T04:09:46;113.82;;;40.50;;
75898;SDS011;64576;50.460;4.866;2022-12-07T04:12:12;90.30;;;34.13;;
75898;SDS011;64576;50.460;4.866;2022-12-07T04:14:38;86.13;;;36.88;;
75898;SDS011;64576;50.460;4.866;2022-12-07T04:17:03;86.97;;;36.17;;
75898;SDS011;64576;50.460;4.866;2022-12-07T04:19:29;89.35;;;34.67;;
75898;SDS011;64576;50.460;4.866;2022-12-07T04:21:57;104.55;;;38.05;;
75898;SDS011;64576;50.460;4.866;2022-12-07T04:24:23;83.75;;;33.78;;
75898;SDS011;64576;50.460;4.866;2022-12-07T04:26:49;95.68;;;38.60;;
75898;SDS011;64576;50.460;4.866;2022-12-07T04:29:15;86.07;;;35.00;;
75898;SDS011;64576;50.460;4.866;2022-12-07T04:31:41;97.68;;;33.35;;
75898;SDS011;64576;50.460;4.866;2022-12-07T04:34:07;81.75;;;31.35;;
75898;SDS011;64576;50.460;4.866;2022-12-07T04:36:33;91.85;;;36.78;;
75898;SDS011;64576;50.460;4.866;2022-12-07T04:38:59;95.70;;;33.28;;
75898;SDS011;64576;50.460;4.866;2022-12-07T04:41:25;91.50;;;36.92;;
75898;SDS011;64576;50.460;4.866;2022-12-07T04:46:24;92.18;;;35.67;;
75898;SDS011;64576;50.460;4.866;2022-12-07T04:48:50;91.28;;;36.72;;
75898;SDS011;64576;50.460;4.866;2022-12-07T04:51:18;96.93;;;37.15;;
75898;SDS011;64576;50.460;4.866;2022-12-07T04:53:45;104.75;;;38.85;;
75898;SDS011;64576;50.460;4.866;2022-12-07T04:56:10;97.45;;;38.03;;
75898;SDS011;64576;50.460;4.866;2022-12-07T04:58:36;102.60;;;38.53;;
75898;SDS011;64576;50.460;4.866;2022-12-07T05:01:01;91.22;;;36.30;;
75898;SDS011;64576;50.460;4.866;2022-12-07T05:03:26;104.22;;;41.28;;
75898;SDS011;64576;50.460;4.866;2022-12-07T05:05:52;99.88;;;37.08;;
75898;SDS011;64576;50.460;4.866;2022-12-07T05:08:17;91.00;;;33.17;;
75898;SDS011;64576;50.460;4.866;2022-12-07T05:10:42;108.78;;;39.40;;
75898;SDS011;64576;50.460;4.866;2022-12-07T05:13:08;99.82;;;36.70;;
75898;SDS011;64576;50.460;4.866;2022-12-07T05:15:33;93.88;;;36.33;;
75898;SDS011;64576;50.460;4.866;2022-12-07T05:17:58;123.40;;;46.17;;
75898;SDS011;64576;50.460;4.866;2022-12-07T05:20:24;101.82;;;36.05;;
75898;SDS011;64576;50.460;4.866;2022-12-07T05:22:49;108.15;;;37.05;;
75898;SDS011;64576;50.460;4.866;2022-12-07T05:25:14;96.70;;;35.00;;
75898;SDS011;64576;50.460;4.866;2022-12-07T05:27:40;112.60;;;39.45;;
75898;SDS011;64576;50.460;4.866;2022-12-07T05:30:05;120.60;;;47.75;;
75898;SDS011;64576;50.460;4.866;2022-12-07T05:32:31;98.97;;;39.22;;
75898;SDS011;64576;50.460;4.866;2022-12-07T05:34:56;98.28;;;40.42;;
75898;SDS011;64576;50.460;4.866;2022-12-07T05:37:21;109.75;;;42.17;;
75898;SDS011;64576;50.460;4.866;2022-12-07T05:39:47;103.55;;;40.28;;
75898;SDS011;64576;50.460;4.866;2022-12-07T05:42:12;92.38;;;36.40;;
75898;SDS011;64576;50.460;4.866;2022-12-07T05:44:38;91.35;;;37.70;;
75898;SDS011;64576;50.460;4.866;2022-12-07T05:47:04;123.05;;;48.03;;
75898;SDS011;64576;50.460;4.866;2022-12-07T05:49:29;93.55;;;37.90;;
75898;SDS011;64576;50.460;4.866;2022-12-07T05:51:55;107.88;;;41.60;;
75898;SDS011;64576;50.460;4.866;2022-12-07T05:54:20;116.68;;;44.83;;
75898;SDS011;64576;50.460;4.866;2022-12-07T05:56:45;120.75;;;44.67;;
75898;SDS011;64576;50.460;4.866;2022-12-07T05:59:11;97.15;;;36.05;;
75898;SDS011;64576;50.460;4.866;2022-12-07T06:01:52;97.75;;;41.90;;
75898;SDS011;64576;50.460;4.866;2022-12-07T06:04:46;110.68;;;43.95;;
75898;SDS011;64576;50.460;4.866;2022-12-07T06:07:13;104.88;;;40.42;;
75898;SDS011;64576;50.460;4.866;2022-12-07T06:09:40;115.63;;;41.47;;
75898;SDS011;64576;50.460;4.866;2022-12-07T06:12:06;115.40;;;44.58;;
75898;SDS011;64576;50.460;4.866;2022-12-07T06:14:50;97.40;;;36.33;;
75898;SDS011;64576;50.460;4.866;2022-12-07T06:17:15;122.80;;;44.90;;
75898;SDS011;64576;50.460;4.866;2022-12-07T06:19:41;115.75;;;43.35;;
75898;SDS011;64576;50.460;4.866;2022-12-07T06:22:06;123.25;;;40.63;;
75898;SDS011;64576;50.460;4.866;2022-12-07T06:24:33;118.30;;;42.55;;
75898;SDS011;64576;50.460;4.866;2022-12-07T06:26:59;109.28;;;41.95;;
75898;SDS011;64576;50.460;4.866;2022-12-07T06:29:24;113.72;;;40.65;;
75898;SDS011;64576;50.460;4.866;2022-12-07T06:31:50;119.30;;;43.30;;
75898;SDS011;64576;50.460;4.866;2022-12-07T06:34:17;129.82;;;47.72;;
75898;SDS011;64576;50.460;4.866;2022-12-07T06:36:43;121.78;;;44.35;;
75898;SDS011;64576;50.460;4.866;2022-12-07T06:39:10;148.30;;;49.65;;
75898;SDS011;64576;50.460;4.866;2022-12-07T06:41:36;110.00;;;40.95;;
75898;SDS011;64576;50.460;4.866;2022-12-07T06:44:02;133.82;;;44.65;;
75898;SDS011;64576;50.460;4.866;2022-12-07T06:46:28;110.97;;;39.83;;
75898;SDS011;64576;50.460;4.866;2022-12-07T06:48:53;112.72;;;39.72;;
75898;SDS011;64576;50.460;4.866;2022-12-07T06:51:19;131.85;;;47.33;;
75898;SDS011;64576;50.460;4.866;2022-12-07T06:53:45;114.90;;;40.33;;
75898;SDS011;64576;50.460;4.866;2022-12-07T06:56:10;110.60;;;41.20;;
75898;SDS011;64576;50.460;4.866;2022-12-07T06:58:35;113.75;;;41.45;;
75898;SDS011;64576;50.460;4.866;2022-12-07T07:01:01;95.28;;;35.67;;
75898;SDS011;64576;50.460;4.866;2022-12-07T07:03:26;120.45;;;39.15;;
75898;SDS011;64576;50.460;4.866;2022-12-07T07:05:52;136.15;;;46.55;;
75898;SDS011;64576;50.460;4.866;2022-12-07T07:08:17;120.82;;;41.03;;
75898;SDS011;64576;50.460;4.866;2022-12-07T07:10:42;108.07;;;40.83;;
75898;SDS011;64576;50.460;4.866;2022-12-07T07:13:08;100.22;;;42.17;;
75898;SDS011;64576;50.460;4.866;2022-12-07T07:15:33;98.88;;;37.97;;
75898;SDS011;64576;50.460;4.866;2022-12-07T07:17:59;98.60;;;36.30;;
75898;SDS011;64576;50.460;4.866;2022-12-07T07:20:25;112.60;;;40.40;;
75898;SDS011;64576;50.460;4.866;2022-12-07T07:22:53;123.75;;;39.13;;
75898;SDS011;64576;50.460;4.866;2022-12-07T07:25:19;108.60;;;37.00;;
75898;SDS011;64576;50.460;4.866;2022-12-07T07:27:44;116.65;;;40.53;;
75898;SDS011;64576;50.460;4.866;2022-12-07T07:30:09;102.10;;;38.97;;
75898;SDS011;64576;50.460;4.866;2022-12-07T07:32:36;114.22;;;39.63;;
75898;SDS011;64576;50.460;4.866;2022-12-07T07:35:01;125.10;;;40.97;;
75898;SDS011;64576;50.460;4.866;2022-12-07T07:37:27;110.85;;;42.13;;
75898;SDS011;64576;50.460;4.866;2022-12-07T07:39:52;113.30;;;39.05;;
75898;SDS011;64576;50.460;4.866;2022-12-07T07:42:17;119.90;;;39.03;;
75898;SDS011;64576;50.460;4.866;2022-12-07T07:44:42;115.32;;;38.25;;
75898;SDS011;64576;50.460;4.866;2022-12-07T07:47:08;128.77;;;39.85;;
75898;SDS011;64576;50.460;4.866;2022-12-07T07:49:34;108.32;;;35.47;;
75898;SDS011;64576;50.460;4.866;2022-12-07T07:51:59;118.28;;;41.80;;
75898;SDS011;64576;50.460;4.866;2022-12-07T07:54:24;115.18;;;40.95;;
75898;SDS011;64576;50.460;4.866;2022-12-07T07:56:50;118.85;;;40.63;;
75898;SDS011;64576;50.460;4.866;2022-12-07T07:59:15;126.57;;;42.28;;
75898;SDS011;64576;50.460;4.866;2022-12-07T08:01:41;125.72;;;39.45;;
75898;SDS011;64576;50.460;4.866;2022-12-07T08:04:06;132.13;;;42.58;;
75898;SDS011;64576;50.460;4.866;2022-12-07T08:06:31;104.20;;;37.28;;
75898;SDS011;64576;50.460;4.866;2022-12-07T08:08:57;122.82;;;45.10;;
75898;SDS011;64576;50.460;4.866;2022-12-07T08:11:23;135.77;;;44.88;;
75898;SDS011;64576;50.460;4.866;2022-12-07T08:13:48;121.60;;;41.60;;
75898;SDS011;64576;50.460;4.866;2022-12-07T08:16:14;108.82;;;38.15;;
75898;SDS011;64576;50.460;4.866;2022-12-07T08:18:40;104.45;;;38.90;;
75898;SDS011;64576;50.460;4.866;2022-12-07T08:21:07;104.50;;;37.85;;
75898;SDS011;64576;50.460;4.866;2022-12-07T08:23:34;130.10;;;41.20;;
75898;SDS011;64576;50.460;4.866;2022-12-07T08:26:00;129.43;;;38.38;;
75898;SDS011;64576;50.460;4.866;2022-12-07T08:28:27;114.13;;;39.90;;
75898;SDS011;64576;50.460;4.866;2022-12-07T08:30:58;127.05;;;42.42;;
75898;SDS011;64576;50.460;4.866;2022-12-07T08:33:25;132.77;;;41.38;;
75898;SDS011;64576;50.460;4.866;2022-12-07T08:35:51;114.20;;;42.58;;
75898;SDS011;64576;50.460;4.866;2022-12-07T08:38:16;114.95;;;41.70;;
75898;SDS011;64576;50.460;4.866;2022-12-07T08:40:41;128.80;;;41.08;;
75898;SDS011;64576;50.460;4.866;2022-12-07T08:43:07;119.68;;;41.03;;
75898;SDS011;64576;50.460;4.866;2022-12-07T08:45:32;119.25;;;41.50;;
75898;SDS011;64576;50.460;4.866;2022-12-07T08:48:07;88.85;;;31.42;;
75898;SDS011;64576;50.460;4.866;2022-12-07T08:50:35;94.35;;;35.75;;
75898;SDS011;64576;50.460;4.866;2022-12-07T08:53:02;105.53;;;37.92;;
75898;SDS011;64576;50.460;4.866;2022-12-07T08:55:29;67.72;;;27.95;;
75898;SDS011;64576;50.460;4.866;2022-12-07T08:57:57;88.40;;;32.28;;
75898;SDS011;64576;50.460;4.866;2022-12-07T09:00:24;104.28;;;38.40;;
75898;SDS011;64576;50.460;4.866;2022-12-07T09:02:51;93.97;;;35.78;;
75898;SDS011;64576;50.460;4.866;2022-12-07T09:05:16;96.30;;;35.38;;
75898;SDS011;64576;50.460;4.866;2022-12-07T09:07:43;84.53;;;34.03;;
75898;SDS011;64576;50.460;4.866;2022-12-07T09:10:11;79.70;;;34.35;;
75898;SDS011;64576;50.460;4.866;2022-12-07T09:12:36;91.10;;;29.67;;
75898;SDS011;64576;50.460;4.866;2022-12-07T09:15:02;90.03;;;33.58;;
75898;SDS011;64576;50.460;4.866;2022-12-07T09:17:31;75.63;;;33.22;;
75898;SDS011;64576;50.460;4.866;2022-12-07T09:19:57;80.18;;;30.38;;
75898;SDS011;64576;50.460;4.866;2022-12-07T09:22:22;76.13;;;30.95;;
75898;SDS011;64576;50.460;4.866;2022-12-07T09:24:47;71.60;;;28.10;;
75898;SDS011;64576;50.460;4.866;2022-12-07T09:27:13;83.10;;;31.08;;
75898;SDS011;64576;50.460;4.866;2022-12-07T09:29:38;78.15;;;30.02;;
75898;SDS011;64576;50.460;4.866;2022-12-07T09:32:04;74.47;;;30.23;;
75898;SDS011;64576;50.460;4.866;2022-12-07T09:34:32;78.25;;;30.98;;
75898;SDS011;64576;50.460;4.866;2022-12-07T09:36:58;60.85;;;25.77;;
75898;SDS011;64576;50.460;4.866;2022-12-07T09:39:25;80.90;;;29.92;;
75898;SDS011;64576;50.460;4.866;2022-12-07T09:41:51;77.50;;;33.78;;
75898;SDS011;64576;50.460;4.866;2022-12-07T09:44:23;77.82;;;29.60;;
75898;SDS011;64576;50.460;4.866;2022-12-07T09:46:49;66.65;;;25.55;;
75898;SDS011;64576;50.460;4.866;2022-12-07T09:49:18;83.22;;;32.40;;
75898;SDS011;64576;50.460;4.866;2022-12-07T09:51:45;74.32;;;29.00;;
75898;SDS011;64576;50.460;4.866;2022-12-07T09:54:15;73.43;;;24.70;;
75898;SDS011;64576;50.460;4.866;2022-12-07T09:56:42;63.55;;;26.50;;
75898;SDS011;64576;50.460;4.866;2022-12-07T09:59:17;58.72;;;25.35;;
75898;SDS011;64576;50.460;4.866;2022-12-07T10:01:44;59.50;;;25.70;;
75898;SDS011;64576;50.460;4.866;2022-12-07T10:04:19;59.22;;;23.15;;
75898;SDS011;64576;50.460;4.866;2022-12-07T10:06:51;55.28;;;23.13;;
75898;SDS011;64576;50.460;4.866;2022-12-07T10:09:18;62.78;;;25.27;;
75898;SDS011;64576;50.460;4.866;2022-12-07T10:14:36;50.70;;;22.58;;
75898;SDS011;64576;50.460;4.866;2022-12-07T10:17:17;47.85;;;21.05;;
75898;SDS011;64576;50.460;4.866;2022-12-07T10:22:36;45.35;;;21.80;;
75898;SDS011;64576;50.460;4.866;2022-12-07T10:25:09;46.25;;;21.63;;
75898;SDS011;64576;50.460;4.866;2022-12-07T10:27:43;50.80;;;22.70;;
75898;SDS011;64576;50.460;4.866;2022-12-07T10:30:22;54.10;;;23.17;;
75898;SDS011;64576;50.460;4.866;2022-12-07T10:32:48;46.90;;;21.92;;
75898;SDS011;64576;50.460;4.866;2022-12-07T10:35:21;59.85;;;23.67;;
75898;SDS011;64576;50.460;4.866;2022-12-07T10:37:51;52.33;;;24.35;;
75898;SDS011;64576;50.460;4.866;2022-12-07T10:43:00;62.63;;;25.88;;
75898;SDS011;64576;50.460;4.866;2022-12-07T10:51:35;40.13;;;19.70;;
75898;SDS011;64576;50.460;4.866;2022-12-07T10:57:24;40.08;;;19.08;;
75898;SDS011;64576;50.460;4.866;2022-12-07T11:00:08;42.25;;;20.15;;
75898;SDS011;64576;50.460;4.866;2022-12-07T11:05:11;40.53;;;18.77;;
75898;SDS011;64576;50.460;4.866;2022-12-07T11:08:18;44.95;;;21.83;;
75898;SDS011;64576;50.460;4.866;2022-12-07T11:11:36;39.80;;;19.27;;
75898;SDS011;64576;50.460;4.866;2022-12-07T11:14:14;41.30;;;20.63;;
75898;SDS011;64576;50.460;4.866;2022-12-07T11:22:06;38.38;;;17.92;;
75898;SDS011;64576;50.460;4.866;2022-12-07T11:24:56;40.35;;;19.60;;
75898;SDS011;64576;50.460;4.866;2022-12-07T11:27:44;36.88;;;20.67;;
75898;SDS011;64576;50.460;4.866;2022-12-07T11:30:20;37.40;;;18.30;;
75898;SDS011;64576;50.460;4.866;2022-12-07T11:32:51;41.33;;;17.13;;
75898;SDS011;64576;50.460;4.866;2022-12-07T11:37:47;43.92;;;17.05;;
75898;SDS011;64576;50.460;4.866;2022-12-07T11:40:21;35.33;;;16.35;;
75898;SDS011;64576;50.460;4.866;2022-12-07T11:45:41;37.55;;;16.08;;
75898;SDS011;64576;50.460;4.866;2022-12-07T11:50:36;43.60;;;18.55;;
75898;SDS011;64576;50.460;4.866;2022-12-07T11:58:23;42.58;;;19.08;;
75898;SDS011;64576;50.460;4.866;2022-12-07T12:01:09;34.50;;;17.92;;
75898;SDS011;64576;50.460;4.866;2022-12-07T12:03:37;40.47;;;17.17;;
75898;SDS011;64576;50.460;4.866;2022-12-07T12:06:07;34.35;;;16.92;;
75898;SDS011;64576;50.460;4.866;2022-12-07T12:08:33;38.25;;;17.65;;
75898;SDS011;64576;50.460;4.866;2022-12-07T12:11:25;38.42;;;15.88;;
75898;SDS011;64576;50.460;4.866;2022-12-07T12:22:24;29.23;;;13.52;;
75898;SDS011;64576;50.460;4.866;2022-12-07T12:24:58;34.30;;;14.48;;
75898;SDS011;64576;50.460;4.866;2022-12-07T12:27:25;26.85;;;12.93;;
75898;SDS011;64576;50.460;4.866;2022-12-07T12:29:55;33.20;;;13.13;;
75898;SDS011;64576;50.460;4.866;2022-12-07T12:32:31;22.42;;;11.60;;
75898;SDS011;64576;50.460;4.866;2022-12-07T12:35:42;28.67;;;12.52;;
75898;SDS011;64576;50.460;4.866;2022-12-07T12:40:52;29.13;;;11.73;;
75898;SDS011;64576;50.460;4.866;2022-12-07T12:48:55;20.38;;;9.70;;
75898;SDS011;64576;50.460;4.866;2022-12-07T12:51:39;25.30;;;11.02;;
75898;SDS011;64576;50.460;4.866;2022-12-07T12:54:10;26.65;;;10.50;;
75898;SDS011;64576;50.460;4.866;2022-12-07T13:04:58;17.30;;;8.40;;
75898;SDS011;64576;50.460;4.866;2022-12-07T13:12:55;19.80;;;8.95;;
75898;SDS011;64576;50.460;4.866;2022-12-07T13:24:06;23.10;;;11.48;;
75898;SDS011;64576;50.460;4.866;2022-12-07T13:26:12;22.00;;;8.55;;
75898;SDS011;64576;50.460;4.866;2022-12-07T13:28:49;16.57;;;8.20;;
75898;SDS011;64576;50.460;4.866;2022-12-07T13:31:34;19.15;;;6.95;;
75898;SDS011;64576;50.460;4.866;2022-12-07T13:34:02;12.00;;;5.85;;
75898;SDS011;64576;50.460;4.866;2022-12-07T13:36:33;12.13;;;4.55;;
75898;SDS011;64576;50.460;4.866;2022-12-07T13:41:41;11.65;;;5.25;;
75898;SDS011;64576;50.460;4.866;2022-12-07T13:44:11;13.35;;;6.30;;
75898;SDS011;64576;50.460;4.866;2022-12-07T13:46:56;11.50;;;5.75;;
75898;SDS011;64576;50.460;4.866;2022-12-07T13:51:52;14.35;;;7.00;;
75898;SDS011;64576;50.460;4.866;2022-12-07T13:54:18;14.02;;;7.07;;
75898;SDS011;64576;50.460;4.866;2022-12-07T13:56:47;13.75;;;6.82;;
75898;SDS011;64576;50.460;4.866;2022-12-07T13:59:23;15.88;;;6.97;;
75898;SDS011;64576;50.460;4.866;2022-12-07T14:01:51;14.75;;;7.38;;
75898;SDS011;64576;50.460;4.866;2022-12-07T14:07:18;21.42;;;7.68;;
75898;SDS011;64576;50.460;4.866;2022-12-07T14:09:53;20.95;;;9.25;;
75898;SDS011;64576;50.460;4.866;2022-12-07T14:12:20;24.23;;;10.38;;
75898;SDS011;64576;50.460;4.866;2022-12-07T14:14:46;14.50;;;8.10;;
75898;SDS011;64576;50.460;4.866;2022-12-07T14:17:17;14.38;;;7.63;;
75898;SDS011;64576;50.460;4.866;2022-12-07T14:22:27;10.70;;;5.78;;
75898;SDS011;64576;50.460;4.866;2022-12-07T14:24:59;16.83;;;7.20;;
75898;SDS011;64576;50.460;4.866;2022-12-07T14:27:29;17.13;;;8.07;;
75898;SDS011;64576;50.460;4.866;2022-12-07T14:29:58;14.23;;;6.25;;
75898;SDS011;64576;50.460;4.866;2022-12-07T14:32:25;13.20;;;5.85;;
75898;SDS011;64576;50.460;4.866;2022-12-07T14:35:02;17.13;;;6.63;;
75898;SDS011;64576;50.460;4.866;2022-12-07T14:37:38;19.60;;;7.57;;
75898;SDS011;64576;50.460;4.866;2022-12-07T14:40:05;14.20;;;8.15;;
75898;SDS011;64576;50.460;4.866;2022-12-07T14:42:31;15.57;;;7.72;;
75898;SDS011;64576;50.460;4.866;2022-12-07T14:44:59;17.25;;;5.75;;
75898;SDS011;64576;50.460;4.866;2022-12-07T14:47:25;14.13;;;7.82;;
75898;SDS011;64576;50.460;4.866;2022-12-07T14:49:51;14.73;;;8.25;;
75898;SDS011;64576;50.460;4.866;2022-12-07T14:52:18;14.10;;;7.38;;
75898;SDS011;64576;50.460;4.866;2022-12-07T14:54:47;11.10;;;5.18;;
75898;SDS011;64576;50.460;4.866;2022-12-07T14:57:12;14.63;;;5.35;;
75898;SDS011;64576;50.460;4.866;2022-12-07T14:59:38;11.43;;;5.20;;
75898;SDS011;64576;50.460;4.866;2022-12-07T15:02:03;10.02;;;5.55;;
75898;SDS011;64576;50.460;4.866;2022-12-07T15:04:29;15.52;;;5.55;;
75898;SDS011;64576;50.460;4.866;2022-12-07T15:06:56;9.15;;;4.80;;
75898;SDS011;64576;50.460;4.866;2022-12-07T15:09:25;13.50;;;5.15;;
75898;SDS011;64576;50.460;4.866;2022-12-07T15:11:51;13.00;;;5.03;;
75898;SDS011;64576;50.460;4.866;2022-12-07T15:14:16;8.32;;;4.30;;
75898;SDS011;64576;50.460;4.866;2022-12-07T15:16:42;12.32;;;5.10;;
75898;SDS011;64576;50.460;4.866;2022-12-07T15:19:18;9.50;;;4.35;;
75898;SDS011;64576;50.460;4.866;2022-12-07T15:21:47;12.50;;;5.25;;
75898;SDS011;64576;50.460;4.866;2022-12-07T15:24:13;9.25;;;4.78;;
75898;SDS011;64576;50.460;4.866;2022-12-07T15:26:39;13.23;;;4.68;;
75898;SDS011;64576;50.460;4.866;2022-12-07T15:29:05;8.38;;;4.35;;
75898;SDS011;64576;50.460;4.866;2022-12-07T15:31:31;10.13;;;4.20;;
75898;SDS011;64576;50.460;4.866;2022-12-07T15:33:56;12.93;;;5.35;;
75898;SDS011;64576;50.460;4.866;2022-12-07T15:36:23;9.15;;;4.30;;
75898;SDS011;64576;50.460;4.866;2022-12-07T15:38:50;8.90;;;4.45;;
75898;SDS011;64576;50.460;4.866;2022-12-07T15:41:16;13.07;;;5.07;;
75898;SDS011;64576;50.460;4.866;2022-12-07T15:43:42;11.40;;;4.43;;
75898;SDS011;64576;50.460;4.866;2022-12-07T15:46:32;7.65;;;3.80;;
75898;SDS011;64576;50.460;4.866;2022-12-07T15:48:59;12.55;;;5.05;;
75898;SDS011;64576;50.460;4.866;2022-12-07T15:51:25;7.25;;;3.42;;
75898;SDS011;64576;50.460;4.866;2022-12-07T15:53:51;11.68;;;4.47;;
75898;SDS011;64576;50.460;4.866;2022-12-07T15:56:16;10.82;;;5.32;;
75898;SDS011;64576;50.460;4.866;2022-12-07T15:58:42;12.43;;;5.40;;
75898;SDS011;64576;50.460;4.866;2022-12-07T16:01:11;10.38;;;4.40;;
75898;SDS011;64576;50.460;4.866;2022-12-07T16:03:37;14.18;;;6.25;;
75898;SDS011;64576;50.460;4.866;2022-12-07T16:06:03;10.52;;;5.30;;
75898;SDS011;64576;50.460;4.866;2022-12-07T16:08:28;16.15;;;6.32;;
75898;SDS011;64576;50.460;4.866;2022-12-07T16:10:53;11.15;;;5.60;;
75898;SDS011;64576;50.460;4.866;2022-12-07T16:13:19;12.70;;;6.00;;
75898;SDS011;64576;50.460;4.866;2022-12-07T16:15:44;15.18;;;6.35;;
75898;SDS011;64576;50.460;4.866;2022-12-07T16:18:09;10.30;;;5.30;;
75898;SDS011;64576;50.460;4.866;2022-12-07T16:20:35;12.77;;;5.68;;
75898;SDS011;64576;50.460;4.866;2022-12-07T16:23:00;14.30;;;6.90;;
75898;SDS011;64576;50.460;4.866;2022-12-07T16:25:25;11.77;;;6.30;;
75898;SDS011;64576;50.460;4.866;2022-12-07T16:27:52;13.52;;;6.70;;
75898;SDS011;64576;50.460;4.866;2022-12-07T16:30:17;13.77;;;6.90;;
75898;SDS011;64576;50.460;4.866;2022-12-07T16:32:43;14.60;;;6.80;;
75898;SDS011;64576;50.460;4.866;2022-12-07T16:35:08;18.73;;;7.18;;
75898;SDS011;64576;50.460;4.866;2022-12-07T16:37:34;19.05;;;8.27;;